createdAt,value
2019-06-01T00:00:14.164Z,0
2019-06-01T00:00:54.722Z,0
2019-06-01T00:01:35.298Z,0
2019-06-01T00:02:15.861Z,0
2019-06-01T00:02:57.385Z,0
2019-06-01T00:03:38.115Z,0
2019-06-01T00:04:17.552Z,0
2019-06-01T00:04:58.116Z,0
2019-06-01T00:11:03.451Z,0
2019-06-01T00:11:45.376Z,0
2019-06-01T00:12:24.570Z,0
2019-06-01T00:13:05.159Z,0
2019-06-01T00:13:45.703Z,0
2019-06-01T00:14:26.259Z,0
2019-06-01T00:15:06.848Z,0
2019-06-01T00:15:48.246Z,0
2019-06-01T00:16:28.000Z,0
2019-06-01T00:21:11.991Z,0
2019-06-01T00:21:52.556Z,0
2019-06-01T00:22:33.116Z,0
2019-06-01T00:23:13.694Z,0
2019-06-01T00:23:54.271Z,0
2019-06-01T00:24:34.847Z,0
2019-06-01T00:25:15.409Z,0
2019-06-01T00:25:55.975Z,0
2019-06-01T00:26:36.527Z,0
2019-06-01T00:27:17.089Z,0
2019-06-01T00:32:42.684Z,0
2019-06-01T00:33:22.222Z,0
2019-06-01T00:34:02.785Z,0
2019-06-01T00:34:43.600Z,0
2019-06-01T00:35:23.900Z,0
2019-06-01T00:36:04.461Z,0
2019-06-01T00:36:45.612Z,0
2019-06-01T00:37:25.593Z,0
2019-06-01T00:38:06.161Z,0
2019-06-01T00:38:47.793Z,0
2019-06-01T00:42:26.132Z,0
2019-06-01T00:43:06.683Z,0
2019-06-01T00:43:48.699Z,0
2019-06-01T00:44:27.799Z,0
2019-06-01T00:45:08.374Z,0
2019-06-01T00:45:48.930Z,0
2019-06-01T00:46:29.497Z,0
2019-06-01T00:47:10.059Z,0
2019-06-01T00:47:50.891Z,0
2019-06-01T00:48:31.178Z,0
2019-06-01T08:05:47.058Z,14640
2019-06-01T08:06:29.956Z,12636
2019-06-01T08:07:08.895Z,12656
2019-06-01T08:07:49.522Z,12744
2019-06-01T08:08:31.370Z,13112
2019-06-01T08:09:11.126Z,13412
2019-06-01T08:09:52.020Z,12328
2019-06-01T08:13:56.602Z,19488
2019-06-01T08:14:37.249Z,19360
2019-06-01T08:15:18.061Z,19360
2019-06-01T08:15:58.731Z,19328
2019-06-01T08:16:39.581Z,18464
2019-06-01T08:17:21.985Z,16896
2019-06-01T08:18:01.914Z,16200
2019-06-01T08:22:46.853Z,13568
2019-06-01T08:23:28.351Z,13212
2019-06-01T08:24:08.202Z,13724
2019-06-01T08:24:49.099Z,14232
2019-06-01T08:25:30.690Z,13612
2019-06-01T08:26:10.864Z,14684
2019-06-01T08:26:51.520Z,15556
2019-06-01T08:32:32.995Z,14780
2019-06-01T08:33:13.716Z,14172
2019-06-01T08:33:54.741Z,13632
2019-06-01T08:34:35.648Z,13720
2019-06-01T08:35:16.274Z,13856
2019-06-01T08:35:56.986Z,13844
2019-06-01T08:36:37.833Z,13588
2019-06-01T08:42:02.894Z,11884
2019-06-01T08:42:43.485Z,12108
2019-06-01T08:43:25.398Z,12136
2019-06-01T08:44:04.663Z,11904
2019-06-01T08:44:45.270Z,11372
2019-06-01T08:45:25.882Z,10816
2019-06-01T08:46:06.469Z,9956
2019-06-01T08:46:47.054Z,9952
2019-06-01T08:47:27.836Z,10028
2019-06-01T08:52:52.841Z,11412
2019-06-01T08:53:34.202Z,11856
2019-06-01T08:54:14.140Z,12068
2019-06-01T08:54:54.817Z,12228
2019-06-01T08:55:35.388Z,12512
2019-06-01T08:56:16.018Z,12428
2019-06-01T08:56:56.636Z,11344
2019-06-01T08:57:37.295Z,10428
2019-06-01T08:58:17.975Z,9608
2019-06-01T09:02:24.240Z,9768
2019-06-01T09:03:04.807Z,9544
2019-06-01T09:03:47.997Z,9296
2019-06-01T09:06:35.461Z,9324
2019-06-01T09:07:17.519Z,9344
2019-06-01T09:08:42.661Z,9672
2019-06-01T09:09:24.809Z,9828
2019-06-01T09:10:04.677Z,9928
2019-06-01T09:10:45.325Z,9808
2019-06-01T09:11:27.019Z,9584
2019-06-01T09:12:07.646Z,8812
2019-06-01T09:16:52.573Z,9744
2019-06-01T09:17:33.508Z,9276
2019-06-01T09:18:14.100Z,9104
2019-06-01T09:18:54.759Z,9032
2019-06-01T09:19:35.795Z,8744
2019-06-01T09:20:16.616Z,8296
2019-06-01T09:20:57.577Z,8740
2019-06-01T09:25:03.539Z,8192
2019-06-01T09:25:44.184Z,7944
2019-06-01T09:26:26.256Z,7928
2019-06-01T09:27:05.695Z,8064
2019-06-01T09:27:46.361Z,8176
2019-06-01T09:28:27.823Z,8284
2019-06-01T09:29:08.088Z,8336
2019-06-01T09:31:13.109Z,8808
2019-06-01T09:31:56.270Z,8816
2019-06-01T09:32:39.638Z,8728
2019-06-01T09:33:24.094Z,8612
2019-06-01T09:34:06.555Z,8552
2019-06-01T09:34:47.574Z,8396
2019-06-01T09:37:34.924Z,8040
2019-06-01T09:38:14.104Z,7964
2019-06-01T09:38:54.912Z,7952
2019-06-01T09:39:36.928Z,8024
2019-06-01T09:40:16.450Z,8044
2019-06-01T09:40:57.381Z,8148
2019-06-01T09:45:42.812Z,7628
2019-06-01T09:46:23.824Z,7652
2019-06-01T09:47:04.446Z,7380
2019-06-01T09:47:45.158Z,7164
2019-06-01T09:48:26.965Z,6552
2019-06-01T09:49:06.340Z,6628
2019-06-01T09:49:47.033Z,6756
2019-06-01T09:50:27.841Z,6808
2019-06-01T09:55:53.015Z,7516
2019-06-01T09:56:35.496Z,7356
2019-06-01T09:57:14.421Z,7240
2019-06-01T09:57:55.092Z,7312
2019-06-01T09:58:36.854Z,7600
2019-06-01T09:59:16.464Z,7764
2019-06-01T09:59:56.993Z,7816
2019-06-01T10:00:41.916Z,7844
2019-06-01T10:05:23.071Z,7100
2019-06-01T10:06:03.772Z,7140
2019-06-01T10:06:44.481Z,7568
2019-06-01T10:07:25.098Z,7868
2019-06-01T10:08:05.711Z,8208
2019-06-01T10:08:46.471Z,8040
2019-06-01T10:09:27.127Z,7764
2019-06-01T10:10:07.804Z,7540
2019-06-01T10:15:34.288Z,6900
2019-06-01T10:16:13.793Z,6824
2019-06-01T10:16:54.427Z,6712
2019-06-01T10:17:35.576Z,6604
2019-06-01T10:18:15.760Z,6484
2019-06-01T10:18:56.667Z,6296
2019-06-01T10:19:38.835Z,6180
2019-06-01T10:22:23.344Z,5736
2019-06-01T10:23:04.464Z,5112
2019-06-01T10:23:48.948Z,4644
2019-06-01T10:24:26.843Z,4444
2019-06-01T10:25:08.429Z,4284
2019-06-01T10:28:33.592Z,5712
2019-06-01T10:29:14.674Z,6468
2019-06-01T10:29:55.795Z,6272
2019-06-01T10:30:39.924Z,6320
2019-06-01T10:33:23.752Z,6804
2019-06-01T10:34:05.745Z,6656
2019-06-01T10:34:49.092Z,6584
2019-06-01T10:36:20.242Z,5648
2019-06-01T10:36:54.745Z,6016
2019-06-01T10:37:39.228Z,5872
2019-06-01T10:41:42.663Z,5336
2019-06-01T10:42:23.294Z,5356
2019-06-01T10:43:03.959Z,5208
2019-06-01T10:43:44.930Z,5012
2019-06-01T10:44:25.535Z,4924
2019-06-01T10:45:06.221Z,5052
2019-06-01T10:45:46.822Z,4568
2019-06-01T10:46:27.416Z,5044
2019-06-01T10:47:08.117Z,4936
2019-06-01T10:51:52.606Z,4996
2019-06-01T10:52:34.454Z,5076
2019-06-01T10:53:14.029Z,5000
2019-06-01T10:53:54.681Z,5000
2019-06-01T10:54:36.120Z,4884
2019-06-01T10:55:16.025Z,4284
2019-06-01T10:55:56.746Z,4160
2019-06-01T10:56:38.463Z,4044
2019-06-01T10:57:17.960Z,3832
2019-06-01T11:02:43.376Z,4396
2019-06-01T11:03:23.927Z,4564
2019-06-01T11:04:04.453Z,5096
2019-06-01T11:04:45.188Z,5368
2019-06-01T11:05:25.825Z,5016
2019-06-01T11:06:06.489Z,5664
2019-06-01T11:06:48.736Z,5780
2019-06-01T11:07:27.820Z,5796
2019-06-01T11:12:52.940Z,4292
2019-06-01T11:13:34.894Z,4212
2019-06-01T11:14:14.139Z,4236
2019-06-01T11:14:54.804Z,4260
2019-06-01T11:15:35.377Z,4264
2019-06-01T11:16:16.101Z,4184
2019-06-01T11:16:56.991Z,4092
2019-06-01T11:17:37.404Z,4012
2019-06-01T11:23:02.948Z,3908
2019-06-01T11:23:46.081Z,3956
2019-06-01T11:24:24.080Z,3752
2019-06-01T11:25:04.714Z,3432
2019-06-01T11:25:45.411Z,4348
2019-06-01T11:26:26.149Z,4492
2019-06-01T11:27:06.843Z,4288
2019-06-01T11:27:47.443Z,4348
2019-06-01T11:33:12.668Z,3092
2019-06-01T11:33:53.334Z,3928
2019-06-01T11:34:34.025Z,3856
2019-06-01T11:35:14.585Z,3080
2019-06-01T11:35:55.202Z,2932
2019-06-01T11:36:36.208Z,3812
2019-06-01T11:37:16.516Z,3872
2019-06-01T11:37:57.130Z,3908
2019-06-01T11:38:38.449Z,3860
2019-06-01T11:44:03.099Z,3732
2019-06-01T11:44:44.880Z,3772
2019-06-01T11:45:24.371Z,3740
2019-06-01T11:46:04.983Z,3808
2019-06-01T11:46:45.607Z,4040
2019-06-01T11:47:26.283Z,4336
2019-06-01T11:48:06.886Z,4524
2019-06-01T11:48:47.495Z,4524
2019-06-01T11:56:31.741Z,4660
2019-06-01T11:57:12.347Z,4580
2019-06-01T11:57:53.033Z,4468
2019-06-01T11:58:33.623Z,4336
2019-06-01T11:59:14.213Z,4212
2019-06-01T11:59:54.805Z,4060
2019-06-01T12:00:35.451Z,3960
2019-06-01T12:01:16.121Z,3884
2019-06-01T12:06:01.492Z,2204
2019-06-01T12:06:42.123Z,2292
2019-06-01T12:07:22.659Z,2952
2019-06-01T12:08:03.248Z,3916
2019-06-01T12:08:44.095Z,4224
2019-06-01T12:09:25.151Z,4428
2019-06-01T12:10:05.748Z,4576
2019-06-01T12:10:47.744Z,4824
2019-06-01T12:16:11.363Z,4312
2019-06-01T12:16:52.137Z,4204
2019-06-01T12:17:32.762Z,4028
2019-06-01T12:18:13.361Z,3852
2019-06-01T12:18:53.945Z,3772
2019-06-01T12:19:34.536Z,3728
2019-06-01T12:20:15.219Z,3664
2019-06-01T12:20:56.083Z,3628
2019-06-01T12:25:42.143Z,3692
2019-06-01T12:26:22.497Z,3668
2019-06-01T12:27:03.189Z,3688
2019-06-01T12:27:43.799Z,3700
2019-06-01T12:28:24.434Z,3652
2019-06-01T12:29:05.026Z,3620
2019-06-01T12:29:45.967Z,3600
2019-06-01T12:30:26.890Z,3600
2019-06-01T12:35:12.065Z,3708
2019-06-01T12:35:52.745Z,3660
2019-06-01T12:36:33.569Z,3608
2019-06-01T12:37:14.396Z,3584
2019-06-01T12:38:05.085Z,3544
2019-06-01T12:41:09.498Z,3596
2019-06-01T12:41:51.714Z,3596
2019-06-01T12:42:31.279Z,3584
2019-06-01T12:43:12.216Z,3572
2019-06-01T12:43:52.890Z,3568
2019-06-01T12:44:33.641Z,3572
2019-06-01T12:45:14.379Z,3584
2019-06-01T12:49:19.090Z,3720
2019-06-01T12:49:59.775Z,3752
2019-06-01T12:50:40.446Z,3784
2019-06-01T12:51:21.101Z,3820
2019-06-01T12:52:01.766Z,3836
2019-06-01T12:52:42.748Z,3740
2019-06-01T12:53:23.520Z,2356
2019-06-01T12:54:04.235Z,1948
2019-06-01T12:58:08.937Z,2112
2019-06-01T12:58:49.548Z,2460
2019-06-01T12:59:30.140Z,4076
2019-06-01T13:00:10.903Z,4132
2019-06-01T13:00:52.471Z,4176
2019-06-01T13:01:32.093Z,4096
2019-06-01T13:02:13.579Z,3996
2019-06-01T13:03:03.125Z,3984
2019-06-01T13:08:19.424Z,4024
2019-06-01T13:08:59.979Z,4012
2019-06-01T13:09:41.962Z,2352
2019-06-01T13:10:21.485Z,3156
2019-06-01T13:11:02.143Z,3508
2019-06-01T13:11:43.266Z,2720
2019-06-01T13:12:23.492Z,2388
2019-06-01T13:13:04.106Z,3948
2019-06-01T13:18:04.857Z,4524
2019-06-01T13:18:45.505Z,4468
2019-06-01T13:19:26.162Z,4380
2019-06-01T13:20:06.818Z,4376
2019-06-01T13:20:47.707Z,4288
2019-06-01T13:21:28.001Z,4284
2019-06-01T13:22:08.570Z,4300
2019-06-01T13:22:49.961Z,4212
2019-06-01T13:23:29.770Z,4208
2019-06-01T13:28:54.677Z,4340
2019-06-01T13:29:35.285Z,4428
2019-06-01T13:30:15.854Z,4400
2019-06-01T13:30:56.456Z,4456
2019-06-01T13:31:37.055Z,4452
2019-06-01T13:32:17.675Z,4524
2019-06-01T13:32:58.365Z,4564
2019-06-01T13:33:38.971Z,4592
2019-06-01T13:34:19.605Z,4592
2019-06-01T13:39:45.143Z,4280
2019-06-01T13:40:25.456Z,4332
2019-06-01T13:41:06.098Z,4360
2019-06-01T13:41:47.176Z,4396
2019-06-01T13:42:27.442Z,4440
2019-06-01T13:43:08.031Z,4468
2019-06-01T13:43:49.495Z,4512
2019-06-01T13:44:29.230Z,4524
2019-06-01T13:45:09.955Z,4524
2019-06-01T13:50:35.021Z,4256
2019-06-01T13:51:15.723Z,4248
2019-06-01T13:51:56.336Z,4196
2019-06-01T13:52:37.050Z,4212
2019-06-01T13:53:17.686Z,4212
2019-06-01T13:53:58.384Z,4224
2019-06-01T13:54:40.178Z,4244
2019-06-01T13:55:19.575Z,4220
2019-06-01T14:00:46.221Z,4224
2019-06-01T14:01:25.683Z,4208
2019-06-01T14:02:06.376Z,4212
2019-06-01T14:02:50.516Z,4268
2019-06-01T14:03:27.902Z,4308
2019-06-01T14:04:08.534Z,4304
2019-06-01T14:04:49.745Z,4324
2019-06-01T14:05:29.905Z,4332
2019-06-01T14:11:51.856Z,4312
2019-06-01T14:12:32.496Z,4328
2019-06-01T14:13:13.552Z,4344
2019-06-01T14:13:54.275Z,4304
2019-06-01T14:14:34.858Z,4324
2019-06-01T14:15:15.481Z,4312
2019-06-01T14:15:56.198Z,4316
2019-06-01T14:16:36.841Z,4296
2019-06-01T14:22:01.522Z,4408
2019-06-01T14:22:42.126Z,4420
2019-06-01T14:23:22.710Z,4452
2019-06-01T14:24:03.364Z,4444
2019-06-01T14:24:45.736Z,4440
2019-06-01T14:25:25.548Z,4448
2019-06-01T14:26:05.591Z,4456
2019-06-01T14:26:46.255Z,4452
2019-06-01T14:27:26.815Z,4448
2019-06-01T14:30:52.266Z,4500
2019-06-01T14:31:31.967Z,4524
2019-06-01T14:32:12.808Z,4524
2019-06-01T14:32:54.422Z,4552
2019-06-01T14:33:34.127Z,4568
2019-06-01T14:34:14.724Z,4572
2019-06-01T14:34:55.308Z,4512
2019-06-01T14:35:36.145Z,4532
2019-06-01T14:36:16.580Z,4524
2019-06-01T14:41:41.944Z,4648
2019-06-01T14:42:22.503Z,4640
2019-06-01T14:43:03.078Z,4644
2019-06-01T14:43:43.648Z,4672
2019-06-01T14:44:24.513Z,4692
2019-06-01T14:45:05.075Z,4596
2019-06-01T14:45:47.171Z,4236
2019-06-01T14:46:26.283Z,4688
2019-06-01T14:47:06.997Z,4708
2019-06-01T14:51:51.603Z,4668
2019-06-01T14:55:05.609Z,4748
2019-06-01T14:55:47.547Z,4832
2019-06-01T14:56:26.893Z,4904
2019-06-01T14:57:07.555Z,4872
2019-06-01T14:57:48.544Z,2772
2019-06-01T14:58:28.972Z,4920
2019-06-01T14:59:09.639Z,4800
2019-06-01T14:59:50.431Z,4240
2019-06-01T15:04:35.555Z,4360
2019-06-01T15:05:16.048Z,4704
2019-06-01T15:05:58.359Z,4724
2019-06-01T15:06:37.957Z,4800
2019-06-01T15:07:18.674Z,4832
2019-06-01T15:07:59.499Z,4772
2019-06-01T15:08:40.094Z,4780
2019-06-01T15:09:20.682Z,4800
2019-06-01T15:15:53.409Z,4664
2019-06-01T15:16:33.447Z,4676
2019-06-01T15:17:13.984Z,4656
2019-06-01T15:17:55.488Z,4656
2019-06-01T15:18:35.102Z,4676
2019-06-01T15:19:15.668Z,4676
2019-06-01T15:19:56.284Z,4676
2019-06-01T15:20:36.807Z,4692
2019-06-01T15:21:17.398Z,4680
2019-06-01T15:27:22.493Z,4576
2019-06-01T15:28:03.994Z,4508
2019-06-01T15:28:43.625Z,4392
2019-06-01T15:29:24.179Z,4624
2019-06-01T15:30:04.800Z,4572
2019-06-01T15:30:45.321Z,4564
2019-06-01T15:31:25.903Z,4544
2019-06-01T15:32:06.469Z,4512
2019-06-01T15:32:47.056Z,4468
2019-06-01T15:33:27.638Z,4476
2019-06-01T15:39:32.771Z,2700
2019-06-01T15:40:13.336Z,3136
2019-06-01T15:40:53.902Z,2300
2019-06-01T15:41:34.470Z,2292
2019-06-01T15:42:15.030Z,3164
2019-06-01T15:42:55.600Z,3936
2019-06-01T15:43:36.166Z,3860
2019-06-01T15:44:16.727Z,4364
2019-06-01T15:44:57.314Z,4308
2019-06-01T15:45:41.144Z,4468
2019-06-01T15:51:06.509Z,4300
2019-06-01T15:51:43.599Z,4212
2019-06-01T15:52:24.168Z,4364
2019-06-01T15:53:04.847Z,4280
2019-06-01T15:53:45.451Z,4336
2019-06-01T15:54:26.290Z,4392
2019-06-01T15:55:06.844Z,3996
2019-06-01T15:55:47.410Z,4292
2019-06-01T16:01:52.979Z,4136
2019-06-01T16:02:33.186Z,4092
2019-06-01T16:03:13.754Z,4016
2019-06-01T16:03:55.035Z,4032
2019-06-01T16:04:34.895Z,4032
2019-06-01T16:05:15.866Z,4056
2019-06-01T16:05:57.057Z,4048
2019-06-01T16:06:37.553Z,4060
2019-06-01T16:12:03.739Z,4028
2019-06-01T16:12:43.315Z,4004
2019-06-01T16:13:23.866Z,4040
2019-06-01T16:14:04.454Z,4020
2019-06-01T16:14:45.041Z,4024
2019-06-01T16:15:25.613Z,4008
2019-06-01T16:16:06.180Z,3996
2019-06-01T16:16:46.748Z,3988
2019-06-01T16:17:27.306Z,3992
2019-06-01T16:18:07.873Z,3996
2019-06-01T16:23:48.569Z,3920
2019-06-01T16:24:13.245Z,3900
2019-06-01T16:24:54.030Z,3876
2019-06-01T16:25:34.380Z,3868
2019-06-01T16:26:16.279Z,3876
2019-06-01T16:26:56.309Z,3856
2019-06-01T16:27:36.113Z,3828
2019-06-01T16:28:16.674Z,3756
2019-06-01T16:28:58.398Z,3768
2019-06-01T16:29:37.835Z,3788
2019-06-01T16:35:03.057Z,3684
2019-06-01T16:35:43.092Z,3672
2019-06-01T16:36:23.692Z,3612
2019-06-01T16:37:05.304Z,3604
2019-06-01T16:37:44.848Z,3576
2019-06-01T16:38:25.415Z,3564
2019-06-01T16:39:07.889Z,3552
2019-06-01T16:39:58.586Z,3484
2019-06-01T16:40:27.137Z,3252
2019-06-01T16:41:07.701Z,3316
2019-06-01T16:47:12.910Z,3320
2019-06-01T16:47:53.565Z,3300
2019-06-01T16:48:34.135Z,3300
2019-06-01T16:49:14.707Z,3300
2019-06-01T16:49:55.744Z,3284
2019-06-01T16:50:35.843Z,3288
2019-06-01T16:51:16.418Z,3292
2019-06-01T16:51:58.688Z,3308
2019-06-01T16:52:37.547Z,3304
2019-06-01T16:58:42.688Z,3192
2019-06-01T16:59:23.282Z,3184
2019-06-01T17:00:04.882Z,3164
2019-06-01T17:00:44.419Z,3112
2019-06-01T17:01:24.987Z,3064
2019-06-01T17:02:06.050Z,3048
2019-06-01T17:02:46.123Z,2992
2019-06-01T17:03:26.713Z,3012
2019-06-01T17:04:07.293Z,2996
2019-06-01T17:04:47.861Z,2944
2019-06-01T17:10:25.379Z,2856
2019-06-01T17:10:53.186Z,2820
2019-06-01T17:11:33.788Z,2800
2019-06-01T17:12:14.353Z,2784
2019-06-01T17:12:54.920Z,2748
2019-06-01T17:13:35.490Z,2736
2019-06-01T17:14:16.060Z,2724
2019-06-01T17:14:56.818Z,2692
2019-06-01T17:15:37.219Z,2664
2019-06-01T17:16:17.794Z,2644
2019-06-01T17:22:23.005Z,2520
2019-06-01T17:23:18.002Z,2508
2019-06-01T17:23:44.119Z,2484
2019-06-01T17:24:24.686Z,2472
2019-06-01T17:25:05.807Z,2476
2019-06-01T17:25:45.839Z,2472
2019-06-01T17:26:26.411Z,2460
2019-06-01T17:27:08.162Z,2428
2019-06-01T17:27:47.555Z,2380
2019-06-01T17:33:52.744Z,2184
2019-06-01T17:34:33.313Z,2144
2019-06-01T17:35:13.871Z,2108
2019-06-01T17:35:54.446Z,2088
2019-06-01T17:36:35.020Z,2068
2019-06-01T17:37:15.591Z,2044
2019-06-01T17:37:56.172Z,2024
2019-06-01T17:38:36.739Z,2000
2019-06-01T17:39:17.302Z,1984
2019-06-01T17:39:57.864Z,1980
2019-06-01T17:46:02.927Z,1804
2019-06-01T17:46:53.257Z,1784
2019-06-01T17:47:27.155Z,1760
2019-06-01T17:48:17.959Z,1732
2019-06-01T17:48:45.230Z,1704
2019-06-01T17:49:25.795Z,1700
2019-06-01T17:50:07.443Z,1684
2019-06-01T17:50:46.938Z,1672
2019-06-01T17:51:27.501Z,1668
2019-06-01T17:57:32.609Z,1564
2019-06-01T17:58:13.246Z,1548
2019-06-01T17:58:53.753Z,1520
2019-06-01T17:59:34.314Z,1488
2019-06-01T18:00:14.899Z,1472
2019-06-01T18:00:55.575Z,1472
2019-06-01T18:01:36.168Z,1456
2019-06-01T18:02:16.739Z,1440
2019-06-01T18:02:57.296Z,1424
2019-06-01T18:03:37.876Z,1400
2019-06-01T18:09:43.018Z,1220
2019-06-01T18:10:23.599Z,1196
2019-06-01T18:11:04.172Z,1184
2019-06-01T18:11:44.718Z,1172
2019-06-01T18:12:25.302Z,1156
2019-06-01T18:13:06.311Z,1136
2019-06-01T18:13:46.489Z,1120
2019-06-01T18:14:27.002Z,1100
2019-06-01T18:15:08.264Z,1080
2019-06-01T18:21:12.993Z,980
2019-06-01T18:21:53.291Z,964
2019-06-01T18:25:08.417Z,900
2019-06-01T18:25:47.839Z,884
2019-06-01T18:26:28.402Z,872
2019-06-01T18:27:08.965Z,856
2019-06-01T18:27:49.529Z,840
2019-06-01T18:28:30.095Z,832
2019-06-01T18:29:10.784Z,816
2019-06-01T18:29:51.224Z,800
2019-06-01T18:30:31.773Z,788
2019-06-01T18:31:12.836Z,772
2019-06-01T18:33:17.028Z,692
2019-06-01T18:33:57.618Z,688
2019-06-01T18:34:38.374Z,688
2019-06-01T18:35:19.802Z,680
2019-06-01T18:35:59.555Z,664
2019-06-01T18:36:40.120Z,652
2019-06-01T18:37:20.686Z,636
2019-06-01T18:38:01.292Z,624
2019-06-01T18:38:41.850Z,612
2019-06-01T18:42:08.178Z,548
2019-06-01T18:42:48.192Z,536
2019-06-01T18:43:28.741Z,524
2019-06-01T18:44:09.690Z,516
2019-06-01T18:44:49.872Z,504
2019-06-01T18:45:30.446Z,496
2019-06-01T18:46:12.180Z,492
2019-06-01T18:46:51.597Z,480
2019-06-01T18:47:32.783Z,472
2019-06-01T18:53:37.343Z,376
2019-06-01T18:54:17.887Z,368
2019-06-01T18:54:58.439Z,356
2019-06-01T18:55:39.011Z,344
2019-06-01T18:56:19.584Z,336
2019-06-01T18:57:09.324Z,324
2019-06-01T18:57:40.713Z,316
2019-06-01T18:58:21.281Z,308
2019-06-01T18:59:01.901Z,296
2019-06-01T19:05:07.131Z,212
2019-06-01T19:05:47.589Z,204
2019-06-01T19:06:28.155Z,192
2019-06-01T19:07:09.144Z,184
2019-06-01T19:07:49.286Z,180
2019-06-01T19:08:29.890Z,172
2019-06-01T19:09:11.300Z,164
2019-06-01T19:09:51.283Z,156
2019-06-01T19:10:31.852Z,144
2019-06-01T19:16:36.955Z,92
2019-06-01T19:17:17.524Z,88
2019-06-01T19:17:58.115Z,80
2019-06-01T19:18:38.743Z,76
2019-06-01T19:19:19.302Z,76
2019-06-01T19:19:59.863Z,68
2019-06-01T19:20:40.422Z,64
2019-06-01T19:21:20.987Z,60
2019-06-01T19:22:01.554Z,56
2019-06-01T19:22:42.134Z,52
2019-06-01T19:28:47.268Z,28
2019-06-01T19:29:27.816Z,24
2019-06-01T19:30:08.844Z,24
2019-06-01T19:30:48.962Z,24
2019-06-01T19:31:29.542Z,20
2019-06-01T19:32:10.819Z,20
2019-06-01T19:32:50.664Z,20
2019-06-01T19:33:31.231Z,16
2019-06-01T19:34:12.747Z,16
2019-06-01T19:40:17.459Z,8
2019-06-01T19:40:57.547Z,8
2019-06-01T19:41:44.482Z,4
2019-06-01T19:42:18.674Z,8
2019-06-01T19:42:59.258Z,8
2019-06-01T19:43:39.820Z,4
2019-06-01T19:44:20.384Z,4
2019-06-01T19:45:00.946Z,8
2019-06-01T19:45:41.495Z,4
2019-06-01T19:46:22.057Z,4
2019-06-01T19:52:27.214Z,4
2019-06-01T19:53:08.651Z,0
2019-06-01T19:53:48.321Z,0
2019-06-01T19:54:28.896Z,0
2019-06-01T19:55:10.705Z,0
2019-06-01T19:55:50.030Z,0
2019-06-01T19:56:30.632Z,0
2019-06-01T19:57:11.798Z,0
2019-06-01T19:57:51.769Z,0
2019-06-01T19:58:32.341Z,0
2019-06-01T20:03:56.948Z,0
2019-06-01T20:04:37.517Z,0
2019-06-01T20:05:18.771Z,0
2019-06-01T20:05:58.770Z,0
2019-06-01T20:06:39.407Z,0
2019-06-01T20:07:21.279Z,0
2019-06-01T20:08:00.566Z,0
2019-06-01T20:08:41.135Z,0
2019-06-01T20:09:21.697Z,0
2019-06-01T20:10:02.283Z,0
2019-06-01T20:15:26.940Z,0
2019-06-01T20:16:07.515Z,0
2019-06-01T20:16:48.104Z,0
2019-06-01T20:17:28.673Z,0
2019-06-01T20:18:10.409Z,0
2019-06-01T20:18:49.855Z,0
2019-06-01T20:19:30.530Z,0
2019-06-01T20:20:11.097Z,0
2019-06-01T20:20:51.667Z,0
2019-06-01T20:21:32.234Z,0
2019-06-01T20:27:37.352Z,0
2019-06-01T20:28:17.931Z,0
2019-06-01T20:28:58.510Z,0
2019-06-01T20:29:39.091Z,0
2019-06-01T20:30:19.947Z,0
2019-06-01T20:31:00.231Z,0
2019-06-01T20:31:40.797Z,0
2019-06-01T20:32:22.166Z,0
2019-06-01T20:33:01.948Z,0
2019-06-01T20:39:07.026Z,0
2019-06-01T20:39:47.579Z,0
2019-06-01T20:40:28.142Z,0
2019-06-01T20:41:08.702Z,0
2019-06-01T20:41:49.289Z,0
2019-06-01T20:42:32.709Z,0
2019-06-01T20:43:10.425Z,0
2019-06-01T20:43:50.981Z,0
2019-06-01T20:44:31.542Z,0
2019-06-01T20:45:12.485Z,0
2019-06-01T20:51:17.273Z,0
2019-06-01T20:51:57.848Z,0
2019-06-01T20:52:38.418Z,0
2019-06-01T20:53:19.035Z,0
2019-06-01T20:53:59.550Z,0
2019-06-01T20:54:40.137Z,0
2019-06-01T20:55:21.209Z,0
2019-06-01T20:56:01.258Z,0
2019-06-01T20:56:41.828Z,0
2019-06-01T21:02:46.956Z,0
2019-06-01T21:03:27.578Z,0
2019-06-01T21:04:08.129Z,0
2019-06-01T21:04:48.699Z,0
2019-06-01T21:05:29.268Z,0
2019-06-01T21:06:09.831Z,0
2019-06-01T21:06:50.421Z,0
2019-06-01T21:07:30.967Z,0
2019-06-01T21:08:11.697Z,0
2019-06-01T21:08:52.099Z,0
2019-06-01T21:14:57.210Z,0
2019-06-01T21:15:37.779Z,0
2019-06-01T21:16:18.345Z,0
2019-06-01T21:16:58.913Z,0
2019-06-01T21:17:39.493Z,0
2019-06-01T21:18:20.842Z,0
2019-06-01T21:19:00.633Z,0
2019-06-01T21:19:41.197Z,0
2019-06-01T21:20:28.090Z,0
2019-06-01T21:26:26.973Z,0
2019-06-01T21:27:07.537Z,0
2019-06-01T21:27:48.105Z,0
2019-06-01T21:28:28.679Z,0
2019-06-01T21:29:09.236Z,0
2019-06-01T21:29:49.809Z,0
2019-06-01T21:30:30.382Z,0
2019-06-01T21:31:10.950Z,0
2019-06-01T21:31:51.526Z,0
2019-06-01T21:32:32.083Z,0
2019-06-01T21:38:38.324Z,0
2019-06-01T21:39:17.971Z,0
2019-06-01T21:39:58.518Z,0
2019-06-01T21:40:39.104Z,0
2019-06-01T21:41:19.703Z,0
2019-06-01T21:42:00.247Z,0
2019-06-01T21:42:40.855Z,0
2019-06-01T21:43:29.176Z,0
2019-06-01T21:44:01.953Z,0
2019-06-01T21:50:07.081Z,0
2019-06-01T21:50:47.647Z,0
2019-06-01T21:51:28.200Z,0
2019-06-01T21:52:08.792Z,0
2019-06-01T21:52:49.359Z,0
2019-06-01T21:53:29.927Z,0
2019-06-01T21:54:10.498Z,0
2019-06-01T21:54:51.063Z,0
2019-06-01T21:55:31.626Z,0
2019-06-01T21:56:12.216Z,0
2019-06-01T22:02:18.450Z,0
2019-06-01T22:02:57.849Z,0
2019-06-01T22:03:38.417Z,0
2019-06-01T22:04:19.017Z,0
2019-06-01T22:04:59.558Z,0
2019-06-01T22:05:40.121Z,0
2019-06-01T22:06:21.518Z,0
2019-06-01T22:07:01.253Z,0
2019-06-01T22:07:41.826Z,0
2019-06-01T22:13:46.927Z,0
2019-06-01T22:14:27.763Z,0
2019-06-01T22:15:08.059Z,0
2019-06-01T22:15:48.628Z,0
2019-06-01T22:16:29.195Z,0
2019-06-01T22:17:09.751Z,0
2019-06-01T22:17:50.313Z,0
2019-06-01T22:18:30.874Z,0
2019-06-01T22:19:11.448Z,0
2019-06-01T22:19:52.011Z,0
2019-06-01T22:25:57.253Z,0
2019-06-01T22:26:37.824Z,0
2019-06-01T22:27:18.394Z,0
2019-06-01T22:27:58.987Z,0
2019-06-01T22:28:39.552Z,0
2019-06-01T22:29:20.228Z,0
2019-06-01T22:30:00.689Z,0
2019-06-01T22:30:41.260Z,0
2019-06-01T22:31:22.271Z,0
2019-06-01T22:37:28.175Z,0
2019-06-01T22:38:07.541Z,0
2019-06-01T22:38:48.114Z,0
2019-06-01T22:39:29.000Z,0
2019-06-01T22:40:09.247Z,0
2019-06-01T22:40:49.829Z,0
2019-06-01T22:41:30.397Z,0
2019-06-01T22:42:10.965Z,0
2019-06-01T22:42:51.529Z,0
2019-06-01T22:43:45.363Z,0
2019-06-01T22:49:13.202Z,0
2019-06-01T22:49:53.771Z,0
2019-06-01T22:50:34.335Z,0
2019-06-01T22:51:14.898Z,0
2019-06-01T22:51:55.473Z,0
2019-06-01T22:52:36.076Z,0
2019-06-01T22:53:16.646Z,0
2019-06-01T22:53:57.209Z,0
2019-06-01T22:54:37.779Z,0
2019-06-01T22:57:31.181Z,0
2019-06-01T22:58:11.759Z,0
2019-06-01T22:58:52.334Z,0
2019-06-01T22:59:32.948Z,0
2019-06-01T23:00:13.555Z,0
2019-06-01T23:00:54.234Z,0
2019-06-01T23:01:34.786Z,0
2019-06-01T23:02:15.346Z,0
2019-06-01T23:02:55.931Z,0
2019-06-01T23:09:01.131Z,0
2019-06-01T23:09:41.952Z,0
2019-06-01T23:10:27.733Z,0
2019-06-01T23:11:03.146Z,0
2019-06-01T23:11:43.714Z,0
2019-06-01T23:12:25.385Z,0
2019-06-01T23:13:04.917Z,0
2019-06-01T23:13:53.053Z,0
2019-06-01T23:14:27.286Z,0
2019-06-01T23:20:32.202Z,0
2019-06-01T23:21:11.740Z,0
2019-06-01T23:21:52.337Z,0
2019-06-01T23:22:32.938Z,0
2019-06-01T23:23:13.520Z,0
2019-06-01T23:23:54.106Z,0
2019-06-01T23:24:34.697Z,0
2019-06-01T23:25:15.297Z,0
2019-06-01T23:25:55.916Z,0
2019-06-01T23:32:01.135Z,0
2019-06-01T23:32:41.696Z,0
2019-06-01T23:33:22.711Z,0
2019-06-01T23:34:02.850Z,0
2019-06-01T23:34:43.425Z,0
2019-06-01T23:35:24.372Z,0
2019-06-01T23:36:04.616Z,0
2019-06-01T23:36:45.284Z,0
2019-06-01T23:37:26.640Z,0
2019-06-01T23:43:31.042Z,0
2019-06-01T23:44:12.700Z,0
2019-06-01T23:44:52.258Z,0
2019-06-01T23:45:33.061Z,0
2019-06-01T23:46:13.410Z,0
2019-06-01T23:46:53.992Z,0
2019-06-01T23:47:34.603Z,0
2019-06-01T23:48:15.200Z,0
2019-06-01T23:48:55.751Z,0
2019-06-01T23:55:01.062Z,0
2019-06-01T23:55:41.643Z,0